Situs API Video Gratis Terbaik

AVDBAPI.COM

Cari katalog, periksa data, dan salin URL API bersih dari satu dasbor cepat.

Telegram Gabung komunitas Telegram untuk update!
Today
100
Pembaruan Hari Ini
Censored
314078
Video Disensor
Total
474237
Total Video

Daftar Video

Data terbaru diurutkan berdasarkan waktu pembaruan.

ID Nama CODE Kategori Diperbarui API
269412 C0930-KI190528 Shigeko Yokoi Wanita Matang 42 Tahun C0930-KI190528 Tanpa sensor 2025-08-29 16:20:20 API
269411 SDAB-305 Cewek Nenen Gede yang Polos Ini Saking Sange Sampai Gak Tahan! Pertama Kali Kena Creampie Pas Lagi Jalan-jalan! Amai Kurumi SDAB-305 Disensor (Mosaik) 2025-08-29 16:20:10 API
269410 052819-01 012819-01 Anak Gadis Masokis Saya Banjir Susu Karena Kenikmatan 052819-01 Tanpa sensor 2025-08-29 16:20:00 API
269409 H4610-KI200827 Mika Inoue H4610-KI200827 Tanpa sensor 2025-08-29 16:19:50 API
269408 H0930-KI191017 Babe 32 Tahun Kajitani Shizuka H0930-KI191017 Tanpa sensor 2025-08-29 16:19:40 API
269407 FC2-PPV-4436118 Pengalaman menggoda dari mahasiswi kampus ternama! Takluk di tengah rapat perusahaan besar dan mainkan gadis cantik ini! Ini pertama kalinya dia mau syuting video! FC2-PPV-4436118 Tanpa sensor 2025-08-29 16:19:30 API
269406 022718_651 Tokimeki ~ Pacarku adalah Sukehei Nakamate-chan ~ 022718_651 Tanpa sensor 2025-08-29 16:19:20 API
269405 020420-001 An Takase tidak bisa melupakan tubuh mantan pacarnya yang kini telah menjadi pengantin sahabatnya 020420-001 Tanpa sensor 2025-08-29 16:19:10 API
269404 C0930-KI190530 Sayuri Nakahara Wanita Matang 40 Tahun C0930-KI190530 Tanpa sensor 2025-08-29 16:19:00 API
269403 110318-371 Wanita Matang Arafif Diikat Menggunakan Tempurung Kura 110318-371 Tanpa sensor 2025-08-29 16:18:50 API
269402 HEYZO-2162 Godaan Guru Hikari - Aku Ingin Tubuh Muridku! HEYZO-2162 Tanpa sensor 2025-08-29 16:18:40 API
269401 053019-01 Tolong coret-coret tubuh si jalang F 053019-01 Tanpa sensor 2025-08-29 16:18:30 API
269400 SKY-177 Petualangan Ranjang Istri Pemadu 13 SKY-177 Tanpa sensor 2025-08-29 16:18:20 API
269399 H4610-ORI1733 Gadis Cantik 22 Tahun Aoi Namikoshi H4610-ORI1733 Tanpa sensor 2025-08-29 16:18:10 API
269398 020520-001 Buku Foto Memek Mika Aoki 020520-001 Tanpa sensor 2025-08-29 16:18:00 API
269397 H0930-ORI1550 Seika Awaji, Wanita Seksi Usia 31 Tahun H0930-ORI1550 Tanpa sensor 2025-08-29 16:17:50 API
269396 C0930-KI190601 Gadis 20 Tahun Dengan Fetish Ngompol yang Basah C0930-KI190601 Tanpa sensor 2025-08-29 16:17:40 API
269395 110318-370 Tante Yoko Fujii Bocor ~ Video Cairan Mesumnya Terungkap ~ 110318-370 Tanpa sensor 2025-08-29 16:17:30 API
269394 060119-01 Gadis Amatir dengan Kebiasaan Delusi yang Sangat Mesum 060119-01 Tanpa sensor 2025-08-29 16:17:20 API
269393 030318_653 Tokimeki ~ Pacarku Berdandan Jadi Maid Paling Menggemaskan ~ 030318_653 Tanpa sensor 2025-08-29 16:17:10 API
269392 H4610-KI200829 Gadis Hot 27 Tahun Mari Murakami H4610-KI200829 Tanpa sensor 2025-08-29 16:17:00 API
269391 020620-001 Buku Foto Lubang Dubur Koharu Tachibana 020620-001 Tanpa sensor 2025-08-29 16:16:50 API
269390 FC2-PPV-4439357 *Stok Terbatas* ➔ Payudara Besar/Cowok Muda ➔ Mio/22 tahun ➔ Pamer Pinggang Seksi FC2-PPV-4439357 Tanpa sensor 2025-08-29 16:16:40 API
269389 HEYZO-2163 Kenikmatan dengan Massage Erotis! - Kasus Rinka Mizuhara - HEYZO-2163 Tanpa sensor 2025-08-29 16:16:30 API
269388 K1389 Wanita Mangsa - K1389 Tanpa sensor 2025-08-29 16:16:20 API
269387 110618-372 170618-372 Penaklukan Seks di Alam Terbuka! Istri Cantik Dengan Tubuh Seksi Menggoda 110618-372 Tanpa sensor 2025-08-29 16:16:10 API
269386 H0930-KI191020 Kajiwara Mifuyu Wanita Seksi 33 Tahun H0930-KI191020 Tanpa sensor 2025-08-29 16:16:00 API
269385 HEYZO-2156 Charlotte [Sharot] Payudara Besar Alami yang Luar Biasa dengan Gaya Riding HEYZO-2156 Tanpa sensor 2025-08-29 16:15:50 API
269384 020720-001 Cali Magic Mail - Jiwa sang sersan saat menembus jebakan memek si Race Queen 020720-001 Tanpa sensor 2025-08-29 16:15:40 API
269383 060419-01 010419-01 Payudara Besar ~ Benar-benar tidak ingin wajahku terlihat ~ 060419-01 Tanpa sensor 2025-08-29 16:15:30 API
269382 H4610-KI200830 Shizuka Nishimura, Wanita Cantik Usia 24 Tahun H4610-KI200830 Tanpa sensor 2025-08-29 16:15:20 API
269381 030618_654 Tokimeki ~ Pacar cantikku yang punya badan seksi banget ~ 030618_654 Tanpa sensor 2025-08-29 16:15:10 API
269380 C0930-KI190602 Chiyuki Sobe, Gadis 20 Tahun C0930-KI190602 Tanpa sensor 2025-08-29 16:15:00 API
269379 HEYZO-2164 Hostess Kelas Atas Dengan Tangan "Maut" Ingin Ditusuk! ~ Aku Bakal Hisap Kamu Sampai Puas! ~ HEYZO-2164 Tanpa sensor 2025-08-29 16:14:50 API
269378 110818-373 Dokumentasi Syuting Pertama Istri Amatir Izumi Harumiya 110818-373 Tanpa sensor 2025-08-29 16:14:40 API
269376 H4610-KI200901 Kazu Yuki Gadis 21 Tahun H4610-KI200901 Tanpa sensor 2025-08-29 16:14:20 API
269375 K1388 Wanita Mangsa K1388 Tanpa sensor 2025-08-29 16:14:10 API
269374 H0930-KI191019 Video Selfie Masturbasi yang Sangat Menggairahkan H0930-KI191019 Tanpa sensor 2025-08-29 16:14:00 API
269373 FC2-PPV-4439834 Gadis 19 Tahun Penuh Energi - Berani banget, jago oral seks! Tubuh ramping dan lenturnya sangat becek! Momen penetrasi asli dengan kontol tebal, memperlihatkan penis dengan jelas FC2-PPV-4439834 Tanpa sensor 2025-08-29 16:13:50 API
269372 030818_655 Tokimeki ~ Pacar gue yang punya badan montok cup F yang nakal ~ 030818_655 Tanpa sensor 2025-08-29 16:13:40 API
269371 020820-001 Hubungan Manis Dengan Dua Wanita Berpayudara Besar - Valentine Mana Yang Kamu Suka? ~ Koi Kurumi Prayer Kisumi 020820-001 Tanpa sensor 2025-08-29 16:13:30 API
269370 HEYZO-2165 Bikin Cewek Amatir Mau Menelan HEYZO-2165 Tanpa sensor 2025-08-29 16:13:20 API
269369 060619-01 Aku ingin kamu melakukan hal 060619-01 Tanpa sensor 2025-08-29 16:13:10 API
269368 111018-374 Motif Stroberi Adalah Tanda Si Jalang ~ Hanya Pakai Apron Telanjang Bokong ~ 111018-374 Tanpa sensor 2025-08-29 16:13:00 API
269367 C0930-GOL0163 Wanita Cantik 28 Tahun Imasugi Kahoko C0930-GOL0163 Tanpa sensor 2025-08-29 16:12:50 API
269366 H0930-KI191022 Yuko Fukuhara Wanita Cantik Usia 29 Tahun H0930-KI191022 Tanpa sensor 2025-08-29 16:12:40 API
269364 021120-001 Berbagi Kamar Dengan Mahasiswa Asing ~ Kita Kan Teman Sekamar, Ayo Ngentot! ~ An Hinata Chloe Cherry 021120-001 Tanpa sensor 2025-08-29 16:12:20 API
269362 HEYZO-2166 Rahasia cabul istri tidak bermoral yang tak bisa dikatakan pada suaminya HEYZO-2166 Tanpa sensor 2025-08-29 16:12:00 API
269361 031318_657 Direktur Wanita Keren Yang Menjadikan Pria Sebagai Alat Pemuas 031318_657 Tanpa sensor 2025-08-29 16:11:50 API
269360 H4610-KI200903 Erisa Tada, 26 Tahun H4610-KI200903 Tanpa sensor 2025-08-29 16:11:40 API